Time;durP1;ratioP1;P1;durP2;ratioP2;P2;SDS_P1;SDS_P2;PMS_P1;PMS_P2;Temp;Humidity;BMP_temperature;BMP_pressure;BME280_temperature;BME280_humidity;BME280_pressure;Samples;Min_cycle;Max_cycle;Signal;HPM_P1;HPM_P2
2021/12/12 00:02:05;;;;;;;166.43;85.95;;;;;;;-0.83;100.00;99253.30;2242410;78;20913;-83
2021/12/12 00:04:59;;;;;;;169.15;86.32;;;;;;;-0.80;100.00;99251.38;2240360;79;21035;-82
2021/12/12 00:08:00;;;;;;;182.95;92.95;;;;;;;-0.81;100.00;99247.63;2242523;79;21518;-83
2021/12/12 00:11:01;;;;;;;165.15;86.92;;;;;;;-0.87;100.00;99252.21;2242456;79;21040;-83
2021/12/12 00:14:02;;;;;;;168.90;86.95;;;;;;;-0.98;100.00;99245.63;2242659;79;20964;-82
2021/12/12 00:17:02;;;;;;;173.55;86.42;;;;;;;-1.05;100.00;99239.66;2242938;79;20917;-82
2021/12/12 00:20:03;;;;;;;176.37;89.75;;;;;;;-1.17;100.00;99244.63;2242652;79;21067;-82
2021/12/12 00:23:04;;;;;;;178.53;89.42;;;;;;;-1.33;100.00;99247.75;2270189;78;21062;-82
2021/12/12 00:26:05;;;;;;;163.65;86.25;;;;;;;-1.37;100.00;99257.00;2272924;77;21001;-83
2021/12/12 00:29:05;;;;;;;179.78;90.22;;;;;;;-1.40;100.00;99257.19;2314707;77;21424;-83
2021/12/12 00:32:06;;;;;;;178.55;88.92;;;;;;;-1.43;100.00;99250.50;2314883;77;21017;-82
2021/12/12 00:35:07;;;;;;;160.78;87.70;;;;;;;-1.48;100.00;99256.35;2314920;77;22118;-83
2021/12/12 00:38:08;;;;;;;172.43;88.72;;;;;;;-1.53;100.00;99250.22;2314933;77;20965;-82
2021/12/12 00:41:09;;;;;;;181.37;92.65;;;;;;;-1.56;100.00;99258.55;2314806;77;21076;-82
2021/12/12 00:44:09;;;;;;;179.78;92.12;;;;;;;-1.57;100.00;99260.29;2314819;77;21091;-81
2021/12/12 00:47:10;;;;;;;175.30;87.78;;;;;;;-1.60;100.00;99265.61;2314364;77;20915;-82
2021/12/12 00:50:11;;;;;;;191.68;96.95;;;;;;;-1.67;100.00;99268.16;2314914;77;21115;-82
2021/12/12 00:53:12;;;;;;;190.68;94.92;;;;;;;-1.69;100.00;99281.55;2314774;77;20973;-82
2021/12/12 00:56:13;;;;;;;168.82;82.55;;;;;;;-1.72;100.00;99285.59;2314028;77;20957;-82
2021/12/12 00:59:14;;;;;;;158.27;80.25;;;;;;;-1.80;100.00;99287.77;2273297;78;21066;-82
2021/12/12 01:02:14;;;;;;;182.60;92.92;;;;;;;-1.85;100.00;99290.59;2272815;78;21508;-82
2021/12/12 01:05:15;;;;;;;176.87;91.92;;;;;;;-1.82;100.00;99295.56;2273616;78;21015;-82
2021/12/12 01:08:16;;;;;;;191.47;94.05;;;;;;;-1.81;100.00;99302.81;2272969;78;21008;-82
2021/12/12 01:11:17;;;;;;;183.12;91.08;;;;;;;-1.78;100.00;99306.02;2273028;78;20956;-82
2021/12/12 01:14:18;;;;;;;160.35;82.72;;;;;;;-1.77;100.00;99302.98;2273046;78;20964;-82
2021/12/12 01:17:18;;;;;;;169.25;86.65;;;;;;;-1.78;100.00;99301.34;2273050;78;21000;-82
2021/12/12 01:20:20;;;;;;;180.30;88.30;;;;;;;-1.77;100.00;99297.86;2273027;78;21027;-82
2021/12/12 01:23:21;;;;;;;172.70;90.47;;;;;;;-1.80;100.00;99300.15;2260811;78;20987;-81
2021/12/12 01:26:22;;;;;;;168.10;84.75;;;;;;;-1.79;100.00;99302.26;2265189;77;21021;-82
2021/12/12 01:29:23;;;;;;;164.13;82.08;;;;;;;-1.77;100.00;99305.09;2234207;80;20935;-82
2021/12/12 01:32:28;;;;;;;178.40;88.10;;;;;;;-1.82;100.00;99307.58;2234384;80;21083;-81
2021/12/12 01:35:26;;;;;;;172.70;83.82;;;;;;;-1.83;100.00;99310.60;2228314;80;21017;-82
2021/12/12 01:41:46;;;;;;;150.95;79.67;;;;;;;-1.82;100.00;99316.56;2233895;80;20958;-81
2021/12/12 01:44:47;;;;;;;164.70;79.67;;;;;;;-1.84;100.00;99312.77;2234679;79;21030;-82
2021/12/12 01:47:48;;;;;;;154.78;78.72;;;;;;;-1.77;100.00;99308.95;2218938;80;21541;-82
2021/12/12 01:50:49;;;;;;;149.97;76.50;;;;;;;-1.69;100.00;99311.09;2234596;79;20967;-81
2021/12/12 01:53:50;;;;;;;148.40;76.80;;;;;;;-1.69;100.00;99316.68;2234814;79;21062;-80
2021/12/12 01:56:53;;;;;;;142.43;73.00;;;;;;;-1.68;100.00;99314.48;2232454;80;20935;-81
2021/12/12 01:59:53;;;;;;;158.82;77.53;;;;;;;-1.73;100.00;99322.00;2234161;79;21022;-81
2021/12/12 02:02:54;;;;;;;157.47;81.60;;;;;;;-1.79;100.00;99321.52;2234831;78;21041;-81
2021/12/12 02:05:55;;;;;;;143.10;77.85;;;;;;;-1.79;100.00;99324.08;2234680;79;20955;-82
2021/12/12 02:08:56;;;;;;;153.62;79.45;;;;;;;-1.78;100.00;99324.45;2234236;80;21088;-81
2021/12/12 02:11:56;;;;;;;151.18;77.20;;;;;;;-1.83;100.00;99326.01;2234839;79;21081;-81
2021/12/12 02:14:58;;;;;;;153.05;76.97;;;;;;;-1.84;100.00;99337.16;2234810;79;20982;-81
2021/12/12 02:17:59;;;;;;;158.10;77.75;;;;;;;-1.88;100.00;99331.02;2234598;80;20991;-82
2021/12/12 02:21:08;;;;;;;143.80;70.97;;;;;;;-1.93;100.00;99335.56;2236248;77;20978;-82
2021/12/12 02:37:22;;;;;;;152.07;74.70;;;;;;;-2.31;100.00;99334.66;2181444;82;21018;-81
2021/12/12 02:40:23;;;;;;;156.70;77.40;;;;;;;-2.33;100.00;99335.20;2202315;81;21043;-81
2021/12/12 02:43:24;;;;;;;161.43;79.53;;;;;;;-2.34;100.00;99337.41;2181470;81;21037;-81
2021/12/12 02:46:27;;;;;;;138.55;68.42;;;;;;;-2.40;100.00;99342.86;2202367;81;20967;-83
2021/12/12 02:49:52;;;;;;;226.12;90.45;;;;;;;-2.46;100.00;99354.29;2221795;79;22139;-82
2021/12/12 02:52:42;;;;;;;185.40;85.60;;;;;;;-2.49;100.00;99351.05;2219395;79;21109;-81
2021/12/12 02:55:43;;;;;;;214.05;85.92;;;;;;;-2.45;100.00;99360.24;2221975;80;21310;-81
2021/12/12 02:58:44;;;;;;;245.65;92.42;;;;;;;-2.38;100.00;99369.24;2202416;81;20996;-82
2021/12/12 03:01:45;;;;;;;192.65;84.70;;;;;;;-2.26;100.00;99378.04;2184589;80;20970;-82
2021/12/12 03:04:46;;;;;;;167.80;79.60;;;;;;;-2.14;100.00;99378.19;2202401;81;20946;-81
2021/12/12 03:07:46;;;;;;;149.65;74.22;;;;;;;-2.07;100.00;99380.80;2222173;80;20918;-82
2021/12/12 03:10:47;;;;;;;149.45;66.47;;;;;;;-2.04;100.00;99372.09;2222291;80;21006;-81
2021/12/12 03:13:48;;;;;;;242.43;89.22;;;;;;;-2.06;100.00;99373.47;2222163;80;21069;-81
2021/12/12 03:16:49;;;;;;;201.22;84.00;;;;;;;-2.05;100.00;99373.84;2183783;80;20915;-82
2021/12/12 03:19:50;;;;;;;158.25;73.95;;;;;;;-1.91;100.00;99366.67;2202691;79;20938;-81
2021/12/12 03:22:50;;;;;;;137.35;70.00;;;;;;;-1.83;100.00;99356.81;2202319;81;21023;-80
2021/12/12 03:25:51;;;;;;;138.90;69.90;;;;;;;-1.78;100.00;99368.92;2200654;81;20987;-81
2021/12/12 03:28:52;;;;;;;140.18;68.87;;;;;;;-1.72;100.00;99366.02;2200658;79;21536;-81
2021/12/12 03:31:53;;;;;;;133.00;68.00;;;;;;;-1.61;100.00;99369.72;2200663;81;21061;-81
2021/12/12 03:34:54;;;;;;;135.05;70.80;;;;;;;-1.54;100.00;99369.29;2228646;79;20987;-84
2021/12/12 03:37:55;;;;;;;142.98;74.05;;;;;;;-1.48;100.00;99381.77;2239985;79;21479;-81
2021/12/12 03:40:55;;;;;;;159.05;82.30;;;;;;;-1.48;100.00;99371.48;2239994;79;20987;-81
2021/12/12 03:43:56;;;;;;;148.35;76.42;;;;;;;-1.54;100.00;99371.03;2240042;79;20964;-83
2021/12/12 03:46:57;;;;;;;172.93;84.13;;;;;;;-1.53;100.00;99377.82;2240228;79;21590;-81
2021/12/12 03:49:58;;;;;;;152.30;78.20;;;;;;;-1.72;100.00;99386.56;2240064;79;21078;-82
2021/12/12 03:52:59;;;;;;;143.90;73.95;;;;;;;-1.62;100.00;99386.05;2240314;79;20959;-81
2021/12/12 03:55:59;;;;;;;131.82;64.75;;;;;;;-1.54;100.00;99380.84;2240199;79;21013;-81
2021/12/12 03:59:00;;;;;;;141.90;74.62;;;;;;;-1.53;100.00;99391.48;2240166;79;21416;-81
2021/12/12 04:02:01;;;;;;;153.10;74.40;;;;;;;-1.58;100.00;99383.20;2239956;79;21318;-81
2021/12/12 04:05:02;;;;;;;145.92;72.50;;;;;;;-1.53;100.00;99386.35;2237678;79;21443;-81
2021/12/12 04:08:03;;;;;;;145.95;70.03;;;;;;;-1.42;100.00;99388.30;2200750;81;21010;-81
2021/12/12 04:11:04;;;;;;;140.82;73.42;;;;;;;-1.37;100.00;99385.03;2200884;79;21041;-82
2021/12/12 04:14:04;;;;;;;137.07;71.25;;;;;;;-1.35;100.00;99388.79;2200515;80;20986;-83
2021/12/12 04:17:05;;;;;;;138.22;71.92;;;;;;;-1.32;100.00;99386.86;2200818;80;20986;-82
2021/12/12 04:20:06;;;;;;;149.20;73.52;;;;;;;-1.27;100.00;99394.31;2200701;81;20974;-83
2021/12/12 04:23:07;;;;;;;140.73;70.55;;;;;;;-1.20;100.00;99404.13;2195810;81;21036;-84
2021/12/12 04:26:08;;;;;;;129.15;67.37;;;;;;;-1.15;100.00;99399.56;2192585;81;21053;-82
2021/12/12 04:29:08;;;;;;;137.70;69.25;;;;;;;-1.08;100.00;99395.36;2192700;81;20964;-82
2021/12/12 04:32:09;;;;;;;174.80;80.72;;;;;;;-0.98;100.00;99400.33;2192617;81;21055;-82
2021/12/12 04:35:10;;;;;;;162.62;79.50;;;;;;;-1.00;100.00;99411.99;2192575;81;21072;-81
2021/12/12 04:38:11;;;;;;;155.03;73.28;;;;;;;-1.04;100.00;99421.24;2194883;80;20897;-82
2021/12/12 04:41:12;;;;;;;150.03;71.92;;;;;;;-0.97;100.00;99423.38;2192577;81;21051;-82
2021/12/12 04:44:13;;;;;;;146.35;69.53;;;;;;;-0.90;100.00;99427.70;2192604;80;21082;-82
2021/12/12 04:50:33;;;;;;;130.27;67.70;;;;;;;-0.72;100.00;99436.91;2192702;81;21499;-82
2021/12/12 04:53:34;;;;;;;130.37;67.35;;;;;;;-0.61;100.00;99440.95;2192685;81;21012;-82
2021/12/12 04:56:35;;;;;;;135.25;66.82;;;;;;;-0.56;100.00;99448.38;2215438;80;20925;-83
2021/12/12 04:59:35;;;;;;;151.15;75.30;;;;;;;-0.50;100.00;99460.06;2231404;80;21051;-83
2021/12/12 05:02:37;;;;;;;146.37;71.57;;;;;;;-0.53;100.00;99458.51;2231289;80;21518;-83
2021/12/12 05:05:38;;;;;;;141.75;74.53;;;;;;;-0.52;100.00;99472.20;2231481;80;20996;-83
2021/12/12 05:08:38;;;;;;;126.25;64.25;;;;;;;-0.50;100.00;99462.17;2222564;80;20941;-83
2021/12/12 05:11:39;;;;;;;133.85;67.20;;;;;;;-0.43;100.00;99459.61;2192583;81;21419;-83
2021/12/12 05:14:40;;;;;;;146.15;72.17;;;;;;;-0.48;100.00;99465.47;2192660;81;21043;-82
2021/12/12 05:17:41;;;;;;;130.70;68.15;;;;;;;-0.46;100.00;99470.53;2192556;81;21028;-82
2021/12/12 05:20:41;;;;;;;126.60;63.38;;;;;;;-0.45;100.00;99483.78;2192793;81;21003;-82
2021/12/12 05:23:42;;;;;;;127.35;66.07;;;;;;;-0.40;100.00;99475.31;2192510;81;21093;-83
2021/12/12 05:26:43;;;;;;;140.82;68.57;;;;;;;-0.38;100.00;99480.73;2192713;81;21020;-83
2021/12/12 05:29:44;;;;;;;135.57;66.77;;;;;;;-0.36;100.00;99478.91;2192509;81;21175;-82
2021/12/12 05:32:45;;;;;;;144.02;70.17;;;;;;;-0.36;100.00;99476.80;2192384;81;21000;-83
2021/12/12 05:35:46;;;;;;;121.05;61.18;;;;;;;-0.37;100.00;99470.80;2192700;81;21064;-83
2021/12/12 05:38:46;;;;;;;141.30;67.25;;;;;;;-0.38;100.00;99483.77;2196079;80;21075;-82
2021/12/12 05:41:48;;;;;;;124.75;63.98;;;;;;;-0.43;100.00;99488.38;2198092;80;21023;-83
2021/12/12 05:44:52;;;;;;;147.65;72.03;;;;;;;-0.44;100.00;99493.16;2193084;80;21049;-83
2021/12/12 05:47:52;;;;;;;141.20;68.25;;;;;;;-0.40;100.00;99486.89;2231523;80;21060;-83
2021/12/12 05:50:53;;;;;;;132.30;65.17;;;;;;;-0.29;100.00;99485.33;2201938;80;21551;-83
2021/12/12 05:53:54;;;;;;;136.92;69.00;;;;;;;-0.23;100.00;99485.42;2192645;80;20992;-83
2021/12/12 05:56:55;;;;;;;147.40;69.47;;;;;;;-0.23;100.00;99488.46;2192314;81;21011;-83
2021/12/12 05:59:56;;;;;;;160.28;73.10;;;;;;;-0.24;100.00;99485.52;2192213;81;21611;-83
2021/12/12 06:02:57;;;;;;;142.80;67.45;;;;;;;-0.18;100.00;99483.42;2192456;80;21028;-82
2021/12/12 06:05:57;;;;;;;128.32;63.17;;;;;;;-0.12;100.00;99489.92;2192633;81;21511;-82
2021/12/12 06:08:58;;;;;;;117.67;62.55;;;;;;;-0.17;100.00;99486.36;2200174;80;20984;-81
2021/12/12 06:11:59;;;;;;;139.30;66.50;;;;;;;-0.23;100.00;99484.14;2226455;80;21419;-82
2021/12/12 06:18:21;;;;;;;119.33;60.55;;;;;;;-0.36;100.00;99492.25;2185929;80;21026;-82
2021/12/12 06:21:22;;;;;;;117.82;58.00;;;;;;;-0.42;100.00;99493.42;2180509;82;21030;-83
2021/12/12 06:24:23;;;;;;;128.97;62.53;;;;;;;-0.47;100.00;99503.15;2180849;80;20999;-83
2021/12/12 06:27:24;;;;;;;125.92;60.60;;;;;;;-0.47;100.00;99503.15;2180762;82;20991;-82
2021/12/12 06:30:25;;;;;;;132.95;63.35;;;;;;;-0.42;100.00;99496.45;2147984;83;20981;-82
2021/12/12 06:33:25;;;;;;;118.90;56.73;;;;;;;-0.33;100.00;99495.91;2202189;80;20949;-82
2021/12/12 06:36:26;;;;;;;103.75;50.78;;;;;;;-0.38;100.00;99501.31;2219215;80;20944;-82
2021/12/12 06:39:27;;;;;;;119.80;56.25;;;;;;;-0.42;100.00;99498.57;2219066;80;21614;-82
2021/12/12 06:42:28;;;;;;;99.95;48.98;;;;;;;-0.45;100.00;99503.91;2218693;80;20992;-82
2021/12/12 06:45:29;;;;;;;119.05;55.52;;;;;;;-0.48;100.00;99510.96;2218625;80;21025;-81
2021/12/12 06:51:32;;;;;;;116.28;53.45;;;;;;;-0.38;100.00;99514.19;2172389;82;21604;-82
2021/12/12 06:57:37;;;;;;;109.20;52.60;;;;;;;-0.32;100.00;99511.72;2147445;83;21151;-82
2021/12/12 07:00:38;;;;;;;105.85;51.40;;;;;;;-0.33;100.00;99510.89;2147126;83;21492;-82
2021/12/12 07:03:39;;;;;;;103.90;47.62;;;;;;;-0.34;100.00;99512.27;2147934;83;20984;-83
2021/12/12 07:06:40;;;;;;;95.32;46.63;;;;;;;-0.40;100.00;99520.34;2148107;83;21578;-83
2021/12/12 07:09:40;;;;;;;95.22;45.90;;;;;;;-0.43;100.00;99525.23;2147903;83;20989;-83
2021/12/12 07:12:41;;;;;;;101.78;49.53;;;;;;;-0.44;100.00;99519.71;2147824;83;21071;-83
2021/12/12 07:15:42;;;;;;;96.37;45.73;;;;;;;-0.40;100.00;99526.78;2147770;81;21564;-82
2021/12/12 07:18:43;;;;;;;106.07;48.33;;;;;;;-0.42;100.00;99517.05;2139938;83;20933;-83
2021/12/12 07:21:44;;;;;;;92.67;44.00;;;;;;;-0.45;100.00;99522.38;2111664;84;21087;-82
2021/12/12 07:24:45;;;;;;;98.50;46.98;;;;;;;-0.49;100.00;99523.00;2111967;83;21068;-83
2021/12/12 07:27:45;;;;;;;92.45;44.80;;;;;;;-0.52;100.00;99528.80;2111793;84;21048;-84
2021/12/12 07:30:46;;;;;;;93.62;43.52;;;;;;;-0.50;100.00;99526.50;2111611;84;21008;-81
2021/12/12 07:33:47;;;;;;;102.42;47.50;;;;;;;-0.53;100.00;99522.00;2134522;83;21662;-84
2021/12/12 07:36:50;;;;;;;110.48;52.78;;;;;;;-0.52;100.00;99527.52;2147272;83;21048;-81
2021/12/12 07:39:50;;;;;;;95.57;44.50;;;;;;;-0.50;100.00;99544.97;2147995;83;21068;-85
2021/12/12 07:42:51;;;;;;;87.80;41.53;;;;;;;-0.49;100.00;99547.45;2147918;83;21535;-82
2021/12/12 07:45:52;;;;;;;86.95;40.90;;;;;;;-0.46;100.00;99542.11;2147565;83;21051;-81
2021/12/12 07:48:53;;;;;;;96.20;46.15;;;;;;;-0.54;100.00;99544.33;2148108;83;20989;-80
2021/12/12 07:51:54;;;;;;;97.35;46.45;;;;;;;-0.58;100.00;99565.98;2147717;83;21048;-83
2021/12/12 07:54:55;;;;;;;114.15;47.88;;;;;;;-0.57;100.00;99568.47;2148171;83;21028;-83
2021/12/12 07:57:55;;;;;;;104.30;47.62;;;;;;;-0.53;100.00;99577.31;2148422;83;20996;-83
2021/12/12 08:00:56;;;;;;;102.02;45.40;;;;;;;-0.46;100.00;99585.84;2194210;80;20997;-81
2021/12/12 08:03:57;;;;;;;87.02;39.53;;;;;;;-0.47;100.00;99592.38;2202206;80;20981;-83
2021/12/12 08:06:58;;;;;;;93.10;44.42;;;;;;;-0.60;100.00;99595.66;2188322;81;21003;-82
2021/12/12 08:09:59;;;;;;;88.35;41.68;;;;;;;-0.66;100.00;99594.72;2213234;80;21073;-83
2021/12/12 08:13:00;;;;;;;81.90;39.63;;;;;;;-0.69;100.00;99589.75;2222701;80;20988;-80
2021/12/12 08:16:01;;;;;;;81.42;39.90;;;;;;;-0.72;100.00;99592.52;2219899;80;21658;-83
2021/12/12 08:19:02;;;;;;;91.28;42.95;;;;;;;-0.75;100.00;99607.27;2200494;81;21060;-82
2021/12/12 08:22:03;;;;;;;94.80;43.90;;;;;;;-0.78;100.00;99599.73;2200506;81;20949;-85
2021/12/12 08:25:04;;;;;;;109.42;47.65;;;;;;;-0.76;100.00;99594.05;2200566;81;21052;-82
2021/12/12 08:28:04;;;;;;;87.75;42.13;;;;;;;-0.66;100.00;99594.72;2200494;81;20934;-83
2021/12/12 08:31:05;;;;;;;84.15;41.18;;;;;;;-0.59;100.00;99587.03;2200376;81;21503;-86
2021/12/12 08:34:10;;;;;;;101.18;46.02;;;;;;;-0.57;100.00;99586.47;2095908;83;21547;-85
2021/12/12 08:37:11;;;;;;;91.22;44.50;;;;;;;-0.57;100.00;99592.91;2089232;85;21091;-83
2021/12/12 08:40:24;;;;;;;;;;;;;;;;;;;;;
2021/12/12 08:43:23;;;;;;;99.40;43.00;;;;;;;-0.53;100.00;99600.47;2088536;85;21044;-81
2021/12/12 08:46:24;;;;;;;83.90;39.73;;;;;;;-0.52;100.00;99596.98;2088912;85;21044;-81
2021/12/12 08:49:25;;;;;;;84.90;39.10;;;;;;;-0.51;100.00;99594.77;2089404;85;20953;-81
2021/12/12 08:52:32;;;;;;;79.58;35.00;;;;;;;-0.66;100.00;99589.57;2089329;85;21028;-82
2021/12/12 08:55:36;;;;;;;68.60;33.02;;;;;;;-0.75;100.00;99590.55;2089188;85;21090;-82
2021/12/12 08:58:31;;;;;;;70.37;35.30;;;;;;;-0.78;100.00;99599.28;2103711;84;20977;-81
2021/12/12 09:01:32;;;;;;;92.17;41.08;;;;;;;-0.80;100.00;99591.29;2071584;86;21001;-85
2021/12/12 09:04:33;;;;;;;95.45;43.85;;;;;;;-0.78;100.00;99590.28;2130512;84;21089;-85
2021/12/12 09:07:35;;;;;;;80.20;37.85;;;;;;;-0.71;100.00;99589.48;2130552;83;21571;-82
2021/12/12 09:10:36;;;;;;;83.27;37.03;;;;;;;-0.64;100.00;99585.62;2130632;83;21076;-82
2021/12/12 09:13:37;;;;;;;67.50;30.90;;;;;;;-0.53;100.00;99582.45;2116034;83;20957;-84
2021/12/12 09:16:38;;;;;;;72.42;32.95;;;;;;;-0.49;100.00;99585.21;2094867;85;21025;-82
2021/12/12 09:19:39;;;;;;;70.70;33.02;;;;;;;-0.53;100.00;99588.44;2095173;85;21525;-83
2021/12/12 09:22:42;;;;;;;58.38;26.65;;;;;;;-0.59;100.00;99592.62;2094951;85;21036;-82
2021/12/12 09:25:50;;;;;;;59.85;26.35;;;;;;;-0.58;100.00;99596.86;2095025;84;21054;-87
2021/12/12 09:28:48;;;;;;;70.42;32.13;;;;;;;-0.66;100.00;99596.46;2128877;83;21049;-84
2021/12/12 09:31:48;;;;;;;59.75;27.85;;;;;;;-0.71;100.00;99589.48;2165554;82;21039;-83
2021/12/12 09:34:48;;;;;;;73.70;32.53;;;;;;;-0.79;100.00;99593.77;2177219;81;20925;-81
2021/12/12 09:37:49;;;;;;;71.50;32.88;;;;;;;-0.79;100.00;99603.23;2234722;79;21576;-85
2021/12/12 09:40:50;;;;;;;77.45;34.53;;;;;;;-0.78;100.00;99595.42;2243627;79;21002;-85
2021/12/12 09:43:51;;;;;;;74.58;33.08;;;;;;;-0.80;100.00;99596.44;2243641;79;21437;-83
2021/12/12 09:47:01;;;;;;;80.20;37.10;;;;;;;-0.77;100.00;99593.22;2208069;79;20968;-82
2021/12/12 09:53:19;;;;;;;89.58;40.28;;;;;;;-0.50;100.00;99592.56;2205682;81;21005;-87
2021/12/12 09:56:20;;;;;;;81.60;35.25;;;;;;;-0.42;100.00;99586.06;2206189;81;21036;-86
2021/12/12 09:59:21;;;;;;;91.65;41.10;;;;;;;-0.43;100.00;99577.98;2204407;80;21762;-87
2021/12/12 10:02:22;;;;;;;92.80;40.40;;;;;;;-0.42;100.00;99583.95;2146662;83;21075;-85
2021/12/12 10:05:23;;;;;;;98.67;42.30;;;;;;;-0.44;100.00;99567.31;2103475;85;21532;-86
2021/12/12 10:08:24;;;;;;;88.62;39.35;;;;;;;-0.47;100.00;99573.91;2168610;82;21493;-84
2021/12/12 10:11:25;;;;;;;85.72;37.05;;;;;;;-0.51;100.00;99581.91;2146244;83;21008;-87
2021/12/12 10:14:26;;;;;;;77.20;35.08;;;;;;;-0.49;100.00;99582.64;2104029;85;21628;-86
2021/12/12 10:17:27;;;;;;;88.47;38.70;;;;;;;-0.47;100.00;99592.38;2118597;83;20952;-86
2021/12/12 10:20:27;;;;;;;84.62;38.00;;;;;;;-0.37;100.00;99587.06;2140306;83;20963;-86
2021/12/12 10:23:32;;;;;;;57.88;26.27;;;;;;;-0.27;100.00;99583.06;2139885;83;21542;-86
2021/12/12 10:26:31;;;;;;;70.10;30.97;;;;;;;-0.29;100.00;99581.02;2140059;83;21097;-85
2021/12/12 10:29:35;;;;;;;60.12;27.55;;;;;;;-0.40;100.00;99602.69;2139914;83;21575;-88
2021/12/12 10:32:36;;;;;;;75.50;31.23;;;;;;;-0.47;100.00;99597.06;2140008;83;21059;-88
2021/12/12 10:35:39;;;;;;;63.95;29.42;;;;;;;-0.42;100.00;99601.96;2140194;83;22084;-89
2021/12/12 10:38:41;;;;;;;65.37;27.02;;;;;;;-0.39;100.00;99599.20;2139784;83;21015;-85
2021/12/12 10:41:42;;;;;;;69.07;30.65;;;;;;;-0.39;100.00;99583.76;2140110;83;21098;-86
2021/12/12 10:44:45;;;;;;;80.85;33.67;;;;;;;-0.34;100.00;99582.59;2140561;83;21271;-87
2021/12/12 10:47:46;;;;;;;83.25;36.70;;;;;;;-0.25;100.00;99585.55;2140738;83;20959;-86
2021/12/12 10:50:47;;;;;;;83.25;35.90;;;;;;;-0.19;100.00;99586.45;2140774;83;21521;-86
2021/12/12 10:53:47;;;;;;;83.27;37.85;;;;;;;-0.23;100.00;99579.38;2141244;83;20990;-86
2021/12/12 10:56:48;;;;;;;82.08;34.92;;;;;;;-0.22;100.00;99578.92;2140517;83;21042;-86
2021/12/12 10:59:49;;;;;;;84.30;36.42;;;;;;;-0.15;100.00;99577.64;2140606;83;20935;-86
2021/12/12 11:02:50;;;;;;;80.75;33.65;;;;;;;-0.02;100.00;99573.41;2140494;83;21054;-86
2021/12/12 11:05:51;;;;;;;79.70;35.50;;;;;;;-0.02;100.00;99570.83;2140679;83;20940;-85
2021/12/12 11:08:51;;;;;;;94.87;39.75;;;;;;;-0.09;100.00;99579.41;2140450;83;21043;-85
2021/12/12 11:11:52;;;;;;;93.58;41.90;;;;;;;-0.17;100.00;99572.59;2140602;83;20959;-86
2021/12/12 11:14:53;;;;;;;83.25;36.48;;;;;;;-0.17;100.00;99566.16;2140464;83;21010;-85
2021/12/12 11:17:54;;;;;;;87.25;36.98;;;;;;;-0.16;100.00;99574.70;2140366;83;21087;-86
2021/12/12 11:20:55;;;;;;;111.08;46.80;;;;;;;-0.16;100.00;99572.95;2140637;83;21032;-86
2021/12/12 11:23:56;;;;;;;125.27;49.33;;;;;;;-0.08;100.00;99573.33;2140546;83;21006;-85
2021/12/12 11:26:56;;;;;;;109.67;44.98;;;;;;;-0.01;100.00;99572.48;2140624;83;21007;-86
2021/12/12 11:29:59;;;;;;;96.02;40.60;;;;;;;-0.01;100.00;99561.72;2140730;83;21517;-88
2021/12/12 11:33:00;;;;;;;102.00;41.48;;;;;;;0.01;100.00;99553.11;2140580;83;20995;-87
2021/12/12 11:36:01;;;;;;;83.72;35.15;;;;;;;0.06;100.00;99547.20;2140429;83;21568;-87
2021/12/12 11:39:02;;;;;;;82.97;34.85;;;;;;;0.10;100.00;99555.95;2140767;83;21035;-85
2021/12/12 11:42:03;;;;;;;90.53;37.93;;;;;;;0.14;100.00;99544.53;2140850;83;20999;-86
2021/12/12 11:45:04;;;;;;;91.15;38.50;;;;;;;0.22;100.00;99541.48;2140550;83;21525;-86
2021/12/12 11:48:05;;;;;;;96.05;40.25;;;;;;;0.31;100.00;99542.22;2140358;83;21450;-86
2021/12/12 11:51:06;;;;;;;90.90;41.63;;;;;;;0.42;100.00;99546.70;2140219;83;21082;-86
2021/12/12 11:54:07;;;;;;;82.20;34.65;;;;;;;0.53;100.00;99552.83;2140391;83;21008;-87
2021/12/12 11:57:08;;;;;;;68.62;28.90;;;;;;;0.53;100.00;99548.97;2140441;83;20998;-87
2021/12/12 12:00:09;;;;;;;66.00;28.60;;;;;;;0.53;100.00;99542.98;2140581;83;20986;-89
2021/12/12 12:03:10;;;;;;;79.62;33.55;;;;;;;0.42;100.00;99542.83;2140355;83;21053;-88
2021/12/12 12:06:11;;;;;;;88.65;37.83;;;;;;;0.32;100.00;99542.58;2114692;83;20990;-86
2021/12/12 12:09:12;;;;;;;72.35;29.90;;;;;;;0.27;100.00;99550.61;2140285;83;21002;-86
2021/12/12 12:12:13;;;;;;;79.60;33.65;;;;;;;0.19;100.00;99548.95;2140533;83;20943;-86
2021/12/12 12:15:14;;;;;;;79.10;33.40;;;;;;;0.03;100.00;99553.38;2140244;83;21069;-88
2021/12/12 12:18:15;;;;;;;67.32;29.65;;;;;;;-0.02;100.00;99557.95;2126065;83;21597;-86
2021/12/12 12:21:17;;;;;;;86.87;35.95;;;;;;;0.02;100.00;99552.18;2151458;82;21003;-86
2021/12/12 12:24:21;;;;;;;97.45;42.17;;;;;;;0.06;100.00;99560.91;2180671;82;20959;-85
2021/12/12 12:27:21;;;;;;;86.37;37.33;;;;;;;0.06;100.00;99551.06;2180917;82;20996;-86
2021/12/12 12:30:22;;;;;;;87.37;40.55;;;;;;;0.09;100.00;99553.44;2151892;83;21027;-86
2021/12/12 12:33:23;;;;;;;73.00;31.68;;;;;;;0.20;100.00;99553.18;2180674;82;21066;-86
2021/12/12 12:36:24;;;;;;;79.90;34.43;;;;;;;0.33;100.00;99544.23;2180690;82;21054;-86
2021/12/12 12:39:25;;;;;;;79.58;36.60;;;;;;;0.40;100.00;99541.65;2180682;82;20920;-85
2021/12/12 12:42:25;;;;;;;69.60;33.33;;;;;;;0.46;100.00;99544.31;2180773;82;20987;-86
2021/12/12 12:45:26;;;;;;;86.65;39.60;;;;;;;0.48;100.00;99554.06;2180478;82;20920;-86
2021/12/12 12:48:27;;;;;;;75.03;35.90;;;;;;;0.42;100.00;99551.85;2180486;82;21040;-87
2021/12/12 12:51:28;;;;;;;72.47;31.27;;;;;;;0.35;100.00;99548.82;2180744;82;20973;-85
2021/12/12 12:54:29;;;;;;;75.47;33.08;;;;;;;0.33;100.00;99551.95;2151683;83;21013;-86
2021/12/12 12:57:30;;;;;;;70.22;32.23;;;;;;;0.28;100.00;99561.27;2180721;82;21062;-86
2021/12/12 13:00:30;;;;;;;57.05;26.73;;;;;;;0.24;100.00;99557.67;2180612;82;20952;-87
2021/12/12 13:03:31;;;;;;;62.35;29.57;;;;;;;0.10;100.00;99561.56;2180451;81;20999;-86
2021/12/12 13:06:32;;;;;;;50.95;22.80;;;;;;;-0.05;100.00;99567.98;2180925;82;20955;-86
2021/12/12 13:09:33;;;;;;;68.60;30.10;;;;;;;-0.11;100.00;99568.81;2180442;82;21764;-87
2021/12/12 13:12:34;;;;;;;60.43;27.85;;;;;;;-0.17;100.00;99568.73;2180590;82;21070;-87
2021/12/12 13:15:34;;;;;;;65.20;30.12;;;;;;;-0.21;100.00;99580.11;2180532;82;21506;-87
2021/12/12 13:18:35;;;;;;;79.53;31.73;;;;;;;-0.31;100.00;99572.56;2171089;82;21383;-88
2021/12/12 13:21:37;;;;;;;62.85;27.35;;;;;;;-0.42;100.00;99576.23;2166277;82;21052;-87
2021/12/12 13:24:38;;;;;;;63.33;26.65;;;;;;;-0.43;100.00;99574.11;2166655;82;21025;-86
2021/12/12 13:27:54;;;;;;;66.62;30.27;;;;;;;-0.42;100.00;99575.77;2162768;82;21021;-87
2021/12/12 13:30:42;;;;;;;84.10;36.03;;;;;;;-0.45;100.00;99575.95;2159763;82;20986;-87
2021/12/12 13:33:43;;;;;;;103.10;41.30;;;;;;;-0.46;100.00;99576.02;2162889;82;21006;-89
2021/12/12 13:36:44;;;;;;;80.50;32.15;;;;;;;-0.48;100.00;99567.56;2162786;81;21001;-84
2021/12/12 13:39:45;;;;;;;75.65;32.98;;;;;;;-0.40;100.00;99566.67;2162924;82;20993;-86
2021/12/12 13:42:46;;;;;;;75.55;31.02;;;;;;;-0.44;100.00;99570.34;2162678;81;21012;-84
2021/12/12 13:45:47;;;;;;;69.17;30.25;;;;;;;-0.43;100.00;99564.28;2162870;82;21002;-86
2021/12/12 13:48:48;;;;;;;75.65;32.48;;;;;;;-0.45;100.00;99564.84;2162787;82;21016;-85
2021/12/12 13:51:49;;;;;;;66.62;29.50;;;;;;;-0.48;100.00;99569.68;2162501;82;21025;-86
2021/12/12 13:54:52;;;;;;;62.45;29.02;;;;;;;-0.48;100.00;99575.28;2161703;82;21052;-85
2021/12/12 13:57:55;;;;;;;78.83;35.08;;;;;;;-0.47;100.00;99584.20;2137283;82;21049;-85
2021/12/12 14:00:56;;;;;;;88.70;37.67;;;;;;;-0.43;100.00;99581.83;2162784;82;21101;-86
2021/12/12 14:04:00;;;;;;;86.97;38.85;;;;;;;-0.41;100.00;99585.14;2162622;81;20926;-86
2021/12/12 14:07:01;;;;;;;72.78;32.28;;;;;;;-0.37;100.00;99576.77;2162614;82;21010;-86
2021/12/12 14:10:05;;;;;;;79.17;33.73;;;;;;;-0.25;100.00;99586.38;2162219;81;21073;-86
2021/12/12 14:13:06;;;;;;;65.83;30.57;;;;;;;-0.16;100.00;99590.98;2162321;82;20974;-85